Air Navigation Services of Czech Republic
Airport: LKTB Updated:  21.11.2019 19:00:26  UTC
 METAR LKTB 21.11. 19:00 ...
METAR LKTB 211900Z 11010KT 9999 BKN026 09/08 Q1011 NOSIG RMK REG QNH 1006=
 TAF LKTB 21.11. 17:00 ...
TAF LKTB 211700Z 2118/2300 16008KT 9999 SCT010 OVC016      TEMPO 2118/2207 3000 BR BKN006      BECMG 2207/2210 BKN025      PROB30 TEMPO 2218/2300 15015G25KT=